Time;durP1;ratioP1;P1;durP2;ratioP2;P2;SDS_P1;SDS_P2;PMS_P1;PMS_P2;Temp;Humidity;BMP_temperature;BMP_pressure;BME280_temperature;BME280_humidity;BME280_pressure;Samples;Min_cycle;Max_cycle;Signal;HPM_P1;HPM_P2
2021/12/31 00:01:33;;;;;;;56.25;25.10;;;-1.40;99.90;;;-1.01;100.00;98512.66;5005451;28;129784;-72
2021/12/31 00:04:04;;;;;;;52.58;24.73;;;-1.40;99.90;;;-0.89;100.00;98511.63;5005661;28;119755;-73
2021/12/31 00:06:33;;;;;;;53.17;24.73;;;-1.40;99.90;;;-0.92;100.00;98520.94;4991157;28;118866;-72
2021/12/31 00:09:02;;;;;;;48.95;23.85;;;-1.40;99.90;;;-0.94;100.00;98515.06;5007064;28;129349;-73
2021/12/31 00:11:30;;;;;;;48.58;24.10;;;-1.40;99.90;;;-0.83;100.00;98519.38;5007367;28;129831;-73
2021/12/31 00:13:59;;;;;;;52.00;25.25;;;-1.40;99.90;;;-0.77;100.00;98515.66;5005335;28;119353;-73
2021/12/31 00:16:28;;;;;;;47.35;23.75;;;-1.30;99.90;;;-0.74;100.00;98515.16;5006071;28;119693;-73
2021/12/31 00:18:57;;;;;;;46.67;23.63;;;-1.30;99.90;;;-0.72;100.00;98512.22;5005328;28;130491;-73
2021/12/31 00:21:32;;;;;;;48.92;22.98;;;-1.40;99.90;;;-0.74;100.00;98514.34;5007045;28;128916;-73
2021/12/31 00:24:13;;;;;;;48.42;24.80;;;-1.30;99.90;;;-0.71;100.00;98510.38;5004248;28;122115;-73
2021/12/31 00:26:41;;;;;;;48.40;23.13;;;-1.30;99.90;;;-0.73;100.00;98506.09;5004476;28;121836;-72
2021/12/31 00:29:10;;;;;;;52.80;24.77;;;-1.30;99.90;;;-0.74;100.00;98499.16;5005828;28;130255;-74
2021/12/31 00:31:38;;;;;;;51.42;24.30;;;-1.30;99.90;;;-0.74;100.00;98504.47;4990001;28;129618;-73
2021/12/31 00:34:07;;;;;;;52.60;23.30;;;-1.30;99.90;;;-0.81;100.00;98498.63;5023949;28;119458;-72
2021/12/31 00:36:46;;;;;;;49.92;22.88;;;-1.30;99.90;;;-0.78;100.00;98491.94;5005246;28;119889;-73
2021/12/31 00:39:18;;;;;;;52.38;24.63;;;-1.20;99.90;;;-0.70;100.00;98490.63;5006925;28;129299;-73
2021/12/31 00:41:47;;;;;;;46.67;22.08;;;-1.20;99.90;;;-0.64;100.00;98486.94;5005448;28;129780;-73
2021/12/31 00:44:16;;;;;;;48.17;23.73;;;-1.20;99.90;;;-0.53;100.00;98491.25;5005835;28;118489;-73
2021/12/31 00:46:44;;;;;;;52.95;24.98;;;-1.20;99.90;;;-0.53;100.00;98501.09;5007110;28;119320;-74
2021/12/31 00:49:13;;;;;;;54.75;25.13;;;-1.10;99.90;;;-0.47;100.00;98503.50;5006219;28;129621;-73
2021/12/31 00:51:42;;;;;;;47.20;24.23;;;-1.10;99.90;;;-0.44;100.00;98504.84;5007731;28;129405;-73
2021/12/31 00:54:11;;;;;;;57.78;25.83;;;-1.00;99.90;;;-0.61;100.00;98502.41;5004834;28;119582;-73
2021/12/31 00:56:40;;;;;;;54.75;25.38;;;-1.00;99.90;;;-0.59;100.00;98508.28;5004994;28;119569;-73
2021/12/31 00:59:08;;;;;;;64.13;28.77;;;-1.00;99.90;;;-0.48;100.00;98515.25;5004588;28;129930;-73
2021/12/31 01:01:37;;;;;;;63.88;27.50;;;-1.00;99.90;;;-0.41;100.00;98502.44;5003790;28;130488;-73
2021/12/31 03:55:02;;;;;;;76.38;28.55;;;0.20;99.90;;;0.53;100.00;98391.91;4965688;28;129528;-72
2021/12/31 03:57:31;;;;;;;78.80;29.98;;;0.20;99.90;;;0.55;100.00;98387.13;4960614;28;122862;-73
2021/12/31 03:59:59;;;;;;;81.47;29.70;;;0.20;99.90;;;0.60;100.00;98387.09;4964840;28;122205;-72
2021/12/31 04:02:28;;;;;;;97.85;33.10;;;0.20;99.90;;;0.62;100.00;98390.28;4967020;28;129773;-72
2021/12/31 04:04:56;;;;;;;98.03;33.88;;;0.20;99.90;;;0.76;100.00;98395.84;4967361;28;129691;-72
2021/12/31 04:07:25;;;;;;;85.85;31.35;;;0.20;99.90;;;0.74;100.00;98391.88;4965532;28;119908;-72
2021/12/31 04:09:53;;;;;;;89.63;31.95;;;0.30;99.90;;;0.73;100.00;98390.25;4965144;28;119439;-74
2021/12/31 04:12:23;;;;;;;94.00;35.20;;;0.30;99.90;;;0.80;100.00;98388.09;4971209;28;130811;-72
2021/12/31 04:14:54;;;;;;;97.30;35.30;;;0.20;99.90;;;0.84;100.00;98379.28;5004556;28;129707;-74
2021/12/31 04:17:22;;;;;;;90.65;33.88;;;0.30;99.90;;;0.88;100.00;98382.19;5007018;28;119810;-72
2021/12/31 04:19:55;;;;;;;84.53;31.95;;;0.30;99.90;;;0.83;100.00;98384.88;5007368;28;119547;-73
2021/12/31 04:22:26;;;;;;;92.65;33.60;;;0.30;99.90;;;0.90;100.00;98390.72;4988442;28;128857;-73
2021/12/31 04:24:54;;;;;;;97.45;35.13;;;0.30;99.90;;;0.87;100.00;98380.56;4986286;28;129647;-73
2021/12/31 04:27:24;;;;;;;97.18;35.08;;;0.30;99.90;;;0.96;100.00;98386.16;5004845;28;119635;-72
2021/12/31 04:29:53;;;;;;;102.18;33.20;;;0.30;99.90;;;0.79;100.00;98383.81;5007224;28;119516;-72
2021/12/31 04:32:25;;;;;;;93.30;32.10;;;0.30;99.90;;;0.88;100.00;98384.84;5006504;28;129598;-73
2021/12/31 04:34:54;;;;;;;99.00;34.63;;;0.30;99.90;;;0.91;100.00;98386.97;5003181;28;129740;-72
2021/12/31 04:37:23;;;;;;;90.65;34.63;;;0.30;99.90;;;0.94;100.00;98375.75;5004830;28;119454;-73
2021/12/31 04:39:51;;;;;;;78.72;31.23;;;0.30;99.90;;;0.99;100.00;98386.38;5005153;28;119668;-72
2021/12/31 04:42:20;;;;;;;91.75;33.28;;;0.30;99.90;;;1.05;100.00;98374.59;5002685;28;129847;-73
2021/12/31 04:44:50;;;;;;;86.32;31.50;;;0.40;99.90;;;1.05;100.00;98377.28;5006768;28;129514;-73
2021/12/31 04:47:18;;;;;;;79.30;30.40;;;0.40;99.90;;;1.06;100.00;98373.53;5002665;28;121895;-73
2021/12/31 04:49:47;;;;;;;75.25;30.08;;;0.40;99.90;;;1.02;100.00;98372.47;5004411;28;121883;-74
2021/12/31 04:52:15;;;;;;;88.70;33.70;;;0.40;99.90;;;1.04;100.00;98375.69;5004169;28;129972;-73
2021/12/31 04:54:44;;;;;;;85.65;32.05;;;0.40;99.90;;;1.10;100.00;98381.00;5005819;28;129975;-73
2021/12/31 04:57:12;;;;;;;85.95;31.25;;;0.40;99.90;;;1.14;100.00;98377.50;5004155;28;119900;-72
2021/12/31 04:59:41;;;;;;;84.30;32.63;;;0.40;99.90;;;1.04;100.00;98375.69;5003826;28;119476;-73
2021/12/31 05:02:11;;;;;;;82.47;30.67;;;0.50;99.90;;;1.06;100.00;98378.88;5003632;28;129921;-74
2021/12/31 05:04:39;;;;;;;79.30;29.98;;;0.50;99.90;;;1.14;100.00;98368.66;5004436;28;130025;-74
2021/12/31 05:07:07;;;;;;;85.72;32.22;;;0.60;99.90;;;1.03;100.00;98368.75;4989652;28;119798;-74
2021/12/31 05:09:36;;;;;;;75.90;32.55;;;0.50;99.90;;;1.04;100.00;98370.34;5005500;28;119063;-77
2021/12/31 05:12:06;;;;;;;84.78;32.08;;;0.50;99.90;;;1.11;100.00;98363.88;5002612;28;129932;-75
2021/12/31 05:14:35;;;;;;;79.65;31.02;;;0.50;99.90;;;0.93;100.00;98379.47;4973250;28;129443;-75
2021/12/31 05:17:03;;;;;;;82.07;31.60;;;0.60;99.90;;;0.98;100.00;98376.78;5005971;28;119492;-75
2021/12/31 05:19:34;;;;;;;90.75;33.08;;;0.60;99.90;;;1.06;100.00;98384.22;5003034;28;119296;-77
2021/12/31 05:22:03;;;;;;;94.47;34.42;;;0.60;99.90;;;1.02;100.00;98385.84;5004349;28;129737;-78
2021/12/31 05:24:31;;;;;;;96.63;33.25;;;0.60;99.90;;;1.19;100.00;98376.66;4989393;28;129634;-77
2021/12/31 05:27:00;;;;;;;89.25;32.78;;;0.60;99.90;;;1.15;100.00;98380.97;5006583;28;119128;-78
2021/12/31 05:29:29;;;;;;;86.00;33.50;;;0.50;99.90;;;1.08;100.00;98376.72;5004659;28;119154;-77
2021/12/31 05:31:57;;;;;;;99.35;34.00;;;0.60;99.90;;;1.10;100.00;98372.97;5003952;28;130547;-77
2021/12/31 05:34:26;;;;;;;84.63;32.95;;;0.60;99.90;;;1.23;100.00;98372.34;5003914;28;129507;-77
2021/12/31 05:36:57;;;;;;;89.35;33.90;;;0.60;99.90;;;1.29;100.00;98365.88;5003128;28;122149;-77
2021/12/31 05:39:26;;;;;;;105.50;35.97;;;0.60;99.90;;;1.26;100.00;98361.09;5004452;28;122194;-74
2021/12/31 05:41:56;;;;;;;95.15;32.33;;;0.60;99.90;;;1.33;100.00;98355.47;5003467;28;129509;-73
2021/12/31 05:44:24;;;;;;;95.85;34.35;;;0.60;99.90;;;1.36;100.00;98355.69;5003853;28;130230;-75
2021/12/31 05:46:53;;;;;;;106.72;37.10;;;0.60;99.90;;;1.41;100.00;98352.97;5004284;28;120068;-75
2021/12/31 05:49:22;;;;;;;89.88;31.75;;;0.70;99.90;;;1.54;100.00;98366.78;5004208;28;119758;-76
2021/12/31 05:51:51;;;;;;;84.22;32.03;;;0.70;99.90;;;1.47;100.00;98366.31;5003534;28;129726;-75
2021/12/31 05:54:21;;;;;;;99.55;35.38;;;0.70;99.90;;;1.40;100.00;98353.25;5003431;28;129983;-75
2021/12/31 05:56:51;;;;;;;98.20;33.03;;;0.70;99.90;;;1.35;100.00;98362.09;4986650;28;118630;-76
2021/12/31 05:59:20;;;;;;;95.90;33.55;;;0.70;99.90;;;1.42;100.00;98359.13;5004414;28;120188;-75
2021/12/31 06:01:48;;;;;;;95.15;35.75;;;0.70;99.90;;;1.49;100.00;98366.84;5002299;28;129771;-75
2021/12/31 06:04:17;;;;;;;98.57;36.08;;;0.70;99.90;;;1.53;100.00;98365.22;5004208;28;130352;-76
2021/12/31 06:06:46;;;;;;;97.30;34.33;;;0.70;99.90;;;1.41;100.00;98363.66;5003983;28;119879;-79
2021/12/31 06:09:15;;;;;;;88.55;30.90;;;0.70;99.90;;;1.51;100.00;98373.50;4987994;28;119436;-77
2021/12/31 06:11:45;;;;;;;97.53;35.60;;;0.70;99.90;;;1.47;100.00;98371.66;5003617;28;129580;-81
2021/12/31 06:14:15;;;;;;;100.65;35.55;;;0.70;99.90;;;1.38;100.00;98368.78;4972108;28;129336;-77
2021/12/31 06:16:46;;;;;;;109.15;36.15;;;0.70;99.90;;;1.44;100.00;98373.81;5003949;28;119393;-75
2021/12/31 06:19:15;;;;;;;98.47;32.78;;;0.70;99.90;;;1.55;100.00;98373.75;5004068;28;119675;-75
2021/12/31 06:21:46;;;;;;;98.50;33.53;;;0.80;99.90;;;1.41;100.00;98369.00;5003295;28;130416;-74
2021/12/31 06:24:14;;;;;;;91.88;32.42;;;0.80;99.90;;;1.42;100.00;98370.63;5004911;28;130304;-75
2021/12/31 06:26:44;;;;;;;100.57;32.45;;;0.80;99.90;;;1.44;100.00;98363.09;4987555;28;122043;-75
2021/12/31 06:29:13;;;;;;;88.38;31.75;;;0.80;99.90;;;1.48;100.00;98367.91;5003711;28;122218;-76
2021/12/31 06:31:41;;;;;;;102.35;32.83;;;0.80;99.90;;;1.65;100.00;98376.31;5003262;28;129998;-73
2021/12/31 06:34:10;;;;;;;97.93;33.10;;;0.80;99.90;;;1.62;100.00;98366.19;5004549;28;129664;-76
2021/12/31 06:36:39;;;;;;;100.45;33.67;;;0.80;99.90;;;1.63;100.00;98362.44;5003280;28;120007;-75
2021/12/31 06:39:08;;;;;;;110.00;37.42;;;0.80;99.90;;;1.67;100.00;98365.34;5006830;28;119629;-76
2021/12/31 06:41:37;;;;;;;105.28;32.88;;;0.80;99.90;;;1.70;100.00;98360.25;5002213;28;131184;-75
2021/12/31 06:44:08;;;;;;;123.63;35.53;;;0.80;99.90;;;1.78;100.00;98361.53;5004439;28;129716;-76
2021/12/31 06:46:36;;;;;;;126.18;37.90;;;0.80;99.90;;;1.81;100.00;98350.25;5003688;28;119704;-75
2021/12/31 06:49:05;;;;;;;83.47;32.33;;;0.90;99.90;;;1.79;100.00;98361.25;5003533;28;119297;-76
2021/12/31 06:51:34;;;;;;;98.00;33.72;;;0.90;99.90;;;1.71;100.00;98356.47;4987388;28;128624;-76
2021/12/31 06:54:03;;;;;;;103.28;32.20;;;0.90;99.90;;;1.80;100.00;98360.13;4988587;28;128560;-75
2021/12/31 06:56:33;;;;;;;71.40;29.70;;;1.00;99.90;;;1.95;100.00;98366.44;5003512;28;120017;-76
2021/12/31 06:59:01;;;;;;;90.47;30.70;;;1.00;99.90;;;1.95;100.00;98377.16;4988938;28;118581;-75
2021/12/31 07:01:32;;;;;;;86.00;31.17;;;1.00;99.90;;;2.02;100.00;98372.25;4988572;28;129414;-75
2021/12/31 07:04:00;;;;;;;74.90;28.67;;;1.10;99.90;;;2.04;100.00;98369.28;5003053;28;129897;-75
2021/12/31 07:06:29;;;;;;;80.22;29.98;;;1.10;99.90;;;1.95;100.00;98363.78;5003368;28;120365;-75
2021/12/31 07:08:57;;;;;;;85.75;30.58;;;1.10;99.90;;;2.06;100.00;98367.16;5003720;28;120207;-75
2021/12/31 07:11:26;;;;;;;78.35;29.77;;;1.10;99.90;;;2.16;100.00;98373.16;5002763;28;129970;-75
2021/12/31 07:13:55;;;;;;;64.75;26.65;;;1.10;99.90;;;2.27;100.00;98367.72;5005054;28;130311;-75
2021/12/31 07:16:23;;;;;;;76.55;29.90;;;1.20;99.90;;;2.36;100.00;98378.63;5000788;28;122180;-75
2021/12/31 07:18:53;;;;;;;70.90;29.15;;;1.20;99.90;;;2.41;100.00;98371.31;5001003;28;121563;-75
2021/12/31 07:21:22;;;;;;;65.40;28.55;;;1.20;99.90;;;2.38;100.00;98371.88;5002665;28;129841;-75
2021/12/31 07:23:50;;;;;;;72.28;27.50;;;1.30;99.90;;;2.46;100.00;98373.94;5002371;28;130091;-75
2021/12/31 07:26:19;;;;;;;72.35;29.33;;;1.30;99.90;;;2.56;100.00;98369.56;5002482;28;120091;-75
2021/12/31 07:28:48;;;;;;;65.85;28.73;;;1.30;99.90;;;2.59;100.00;98366.31;5004170;28;119684;-75
2021/12/31 07:31:17;;;;;;;67.55;26.73;;;1.40;99.90;;;2.64;100.00;98363.56;5004543;28;129866;-74
2021/12/31 07:33:46;;;;;;;57.83;25.88;;;1.40;99.90;;;2.63;100.00;98367.31;5005565;28;130209;-74
2021/12/31 07:36:16;;;;;;;59.72;26.95;;;1.50;99.90;;;2.67;100.00;98360.31;5004783;28;120895;-74
2021/12/31 07:38:49;;;;;;;54.25;24.92;;;1.50;99.90;;;2.68;100.00;98343.13;5003114;28;119273;-74
2021/12/31 07:41:18;;;;;;;58.08;25.50;;;1.60;99.90;;;2.73;100.00;98347.63;5000000;28;130268;-73
2021/12/31 07:43:46;;;;;;;66.68;27.60;;;1.60;99.90;;;2.78;100.00;98345.69;5000367;28;129949;-74
2021/12/31 07:46:15;;;;;;;65.93;25.95;;;1.60;99.90;;;2.77;100.00;98352.13;5001664;28;120574;-74
2021/12/31 07:48:44;;;;;;;68.88;27.58;;;1.60;99.90;;;2.57;100.00;98360.41;5003296;28;119360;-74
2021/12/31 07:51:12;;;;;;;64.68;27.77;;;1.50;99.90;;;2.66;100.00;98361.38;5002021;28;130687;-74
2021/12/31 07:53:42;;;;;;;65.68;27.20;;;1.50;99.90;;;2.48;100.00;98358.38;5003377;28;129908;-74
2021/12/31 07:56:11;;;;;;;65.07;27.77;;;1.60;99.90;;;2.59;100.00;98358.28;5005948;28;119613;-75
2021/12/31 07:58:40;;;;;;;67.43;28.40;;;1.70;99.90;;;2.65;100.00;98362.47;5005553;28;119934;-75
2021/12/31 08:01:09;;;;;;;61.30;26.38;;;1.80;99.90;;;2.81;100.00;98361.19;5005360;28;130213;-75
2021/12/31 08:03:37;;;;;;;65.38;25.48;;;1.80;99.90;;;3.07;100.00;98366.22;5005382;28;129770;-74
2021/12/31 08:06:05;;;;;;;53.58;24.10;;;2.00;99.90;;;3.08;100.00;98364.34;5006255;28;122020;-75
2021/12/31 08:08:34;;;;;;;61.90;25.55;;;2.00;99.90;;;3.11;100.00;98359.19;5007748;28;121896;-75
2021/12/31 08:11:06;;;;;;;61.63;26.50;;;2.10;99.90;;;3.21;100.00;98361.72;5005240;28;129942;-74
2021/12/31 08:13:35;;;;;;;53.78;23.73;;;2.10;99.90;;;3.14;100.00;98363.97;5007187;28;130034;-74
2021/12/31 08:16:04;;;;;;;52.33;25.05;;;2.10;99.90;;;3.03;100.00;98357.16;4990630;28;119407;-75
2021/12/31 08:18:32;;;;;;;50.20;24.48;;;2.10;99.90;;;3.07;100.00;98358.19;5005539;28;119703;-75
2021/12/31 08:21:01;;;;;;;58.90;23.00;;;2.10;99.90;;;3.17;100.00;98358.03;5004994;28;129806;-76
2021/12/31 08:23:29;;;;;;;51.88;22.60;;;2.10;99.90;;;3.28;100.00;98360.56;5008183;28;129807;-75
2021/12/31 08:25:59;;;;;;;51.45;22.35;;;2.20;99.90;;;3.18;100.00;98364.16;5005507;28;119769;-74
2021/12/31 08:28:29;;;;;;;55.45;22.25;;;2.10;99.90;;;3.15;100.00;98368.25;5005575;28;119438;-75
2021/12/31 08:30:58;;;;;;;52.60;22.20;;;2.20;99.90;;;3.14;100.00;98369.31;4989417;28;128914;-75
2021/12/31 08:33:28;;;;;;;48.05;21.45;;;2.10;99.90;;;2.97;100.00;98361.00;5005199;28;130878;-75
2021/12/31 08:35:57;;;;;;;47.15;20.00;;;2.10;99.90;;;3.00;100.00;98363.88;4990921;28;118959;-75
2021/12/31 08:38:26;;;;;;;41.80;19.58;;;2.20;99.90;;;3.03;100.00;98373.25;5005392;28;119528;-76
2021/12/31 08:40:57;;;;;;;45.05;19.98;;;2.10;99.90;;;3.04;100.00;98364.13;4987460;28;130217;-76
2021/12/31 08:43:26;;;;;;;41.15;19.60;;;2.10;99.90;;;3.00;100.00;98358.53;5004117;28;130937;-75
2021/12/31 08:45:57;;;;;;;47.22;21.13;;;2.20;99.90;;;3.09;100.00;98364.03;5004777;28;119550;-76
2021/12/31 08:48:26;;;;;;;37.55;19.05;;;2.20;99.90;;;3.12;100.00;98352.75;5005871;28;119567;-76
2021/12/31 08:50:54;;;;;;;37.40;18.48;;;2.20;99.90;;;3.25;100.00;98353.88;5005332;28;130238;-76
2021/12/31 08:53:23;;;;;;;38.33;18.08;;;2.30;99.90;;;3.28;100.00;98352.53;5005730;28;129690;-76
2021/12/31 08:55:52;;;;;;;37.65;19.38;;;2.30;99.90;;;3.27;100.00;98340.19;5005240;28;121885;-76
2021/12/31 08:58:20;;;;;;;39.13;18.23;;;2.30;99.90;;;3.36;100.00;98341.13;5003578;28;121825;-77
2021/12/31 09:00:49;;;;;;;40.90;18.58;;;2.30;99.90;;;3.54;100.00;98351.03;5006005;28;130111;-76
2021/12/31 09:03:19;;;;;;;40.88;17.95;;;2.40;99.90;;;3.47;100.00;98347.91;5025136;28;129638;-76
2021/12/31 09:05:49;;;;;;;35.92;18.35;;;2.40;99.90;;;3.45;100.00;98342.06;5024269;27;120173;-75
2021/12/31 09:08:18;;;;;;;44.17;18.20;;;2.40;99.90;;;3.65;100.00;98340.94;5025340;28;119665;-77
2021/12/31 09:10:46;;;;;;;41.28;18.63;;;2.50;99.90;;;3.64;100.00;98328.59;5024729;28;130027;-75
2021/12/31 09:13:15;;;;;;;34.90;16.92;;;2.50;99.90;;;3.66;100.00;98336.34;5026224;28;130225;-75
2021/12/31 09:15:43;;;;;;;38.03;18.17;;;2.50;99.90;;;3.76;100.00;98330.81;5025074;28;119549;-75
2021/12/31 09:18:12;;;;;;;33.17;16.15;;;2.60;99.90;;;3.79;100.00;98330.22;5024825;28;119385;-75
2021/12/31 09:20:42;;;;;;;33.28;17.55;;;2.60;99.90;;;3.93;100.00;98325.69;5023379;28;129595;-75
2021/12/31 09:23:10;;;;;;;31.63;15.05;;;2.70;99.90;;;4.06;100.00;98320.63;5024515;28;129657;-76
2021/12/31 09:25:38;;;;;;;28.80;15.32;;;2.80;99.90;;;4.06;100.00;98312.56;5025098;28;119622;-75
2021/12/31 09:28:07;;;;;;;29.33;16.13;;;2.90;99.90;;;4.24;100.00;98305.50;5024670;28;119655;-76
2021/12/31 09:30:36;;;;;;;30.30;16.33;;;2.90;99.90;;;4.11;100.00;98315.16;5024114;28;130028;-73
2021/12/31 09:33:05;;;;;;;32.08;15.75;;;2.90;99.90;;;3.98;100.00;98305.22;5023147;28;129795;-74
2021/12/31 09:35:33;;;;;;;32.05;15.55;;;2.90;99.90;;;4.00;100.00;98305.69;5024523;28;119860;-74
2021/12/31 09:38:08;;;;;;;31.48;16.90;;;2.90;99.90;;;4.12;100.00;98306.00;5026701;28;119634;-74
2021/12/31 09:40:37;;;;;;;29.70;15.63;;;2.90;99.90;;;4.09;100.00;98301.25;5026476;28;129871;-74
2021/12/31 09:43:09;;;;;;;33.35;17.25;;;3.00;99.90;;;4.20;100.00;98297.25;5023745;28;129674;-75
2021/12/31 09:45:40;;;;;;;26.80;14.98;;;3.00;99.90;;;4.27;100.00;98307.59;5024215;28;122599;-75
2021/12/31 09:48:09;;;;;;;31.95;16.70;;;3.00;99.90;;;4.27;100.00;98303.03;5023879;28;122272;-75
2021/12/31 09:50:40;;;;;;;29.95;15.93;;;3.00;99.90;;;4.26;100.00;98296.06;5025283;28;129983;-75
2021/12/31 09:53:12;;;;;;;29.77;14.48;;;3.10;99.90;;;4.21;100.00;98290.81;5023245;28;129706;-75
2021/12/31 09:55:44;;;;;;;28.08;15.60;;;3.00;99.90;;;4.20;100.00;98291.88;5024200;28;120193;-75
2021/12/31 09:58:15;;;;;;;31.13;15.05;;;3.10;99.90;;;4.32;100.00;98289.50;5025724;28;119259;-75
2021/12/31 10:00:47;;;;;;;29.80;16.30;;;3.20;99.90;;;4.26;100.00;98290.69;5024385;28;129962;-75
2021/12/31 10:03:17;;;;;;;32.70;16.38;;;3.10;99.90;;;4.23;100.00;98302.03;5023259;28;129790;-76
2021/12/31 10:05:49;;;;;;;28.63;15.55;;;3.10;99.90;;;4.31;100.00;98304.00;5024497;28;118392;-76
2021/12/31 10:08:22;;;;;;;27.02;14.95;;;3.20;99.90;;;4.43;100.00;98291.97;5023571;28;119525;-76
2021/12/31 10:11:14;;;;;;;24.27;13.52;;;3.30;99.90;;;4.46;100.00;98288.69;5022042;28;129934;-77
2021/12/31 10:13:45;;;;;;;27.55;13.93;;;3.30;99.90;;;4.63;100.00;98288.88;5020963;28;129771;-76
2021/12/31 10:16:23;;;;;;;26.85;14.25;;;3.40;99.90;;;4.74;100.00;98277.91;5026148;27;119592;-77
2021/12/31 10:19:06;;;;;;;23.58;13.15;;;3.50;99.90;;;4.75;99.64;98284.84;5023278;28;120144;-77
2021/12/31 10:21:41;;;;;;;29.20;14.18;;;3.50;99.90;;;4.75;100.00;98274.09;5022838;28;130031;-77
2021/12/31 10:24:34;;;;;;;22.38;12.95;;;3.50;99.90;;;4.63;100.00;98277.31;5025628;28;130230;-77
2021/12/31 10:27:19;;;;;;;20.83;12.60;;;3.40;99.90;;;4.80;100.00;98265.91;5008267;28;118491;-77
2021/12/31 10:29:55;;;;;;;24.73;13.48;;;3.50;99.90;;;4.85;100.00;98257.75;5023667;28;119350;-77
2021/12/31 10:32:26;;;;;;;23.95;13.25;;;3.60;99.90;;;4.88;99.89;98251.78;5009638;28;129921;-77
2021/12/31 10:35:07;;;;;;;22.85;12.38;;;3.60;99.90;;;5.03;99.67;98248.72;5002252;28;130108;-77
2021/12/31 10:37:42;;;;;;;21.17;11.88;;;3.70;99.90;;;4.99;99.13;98242.34;5002777;28;122480;-80
2021/12/31 10:40:25;;;;;;;21.90;12.23;;;3.70;99.90;;;5.12;98.74;98240.72;4973978;28;121396;-81
2021/12/31 10:43:09;;;;;;;20.15;11.30;;;3.80;99.90;;;5.03;97.98;98248.72;5004438;28;129682;-79
2021/12/31 10:45:38;;;;;;;22.65;12.13;;;3.80;99.90;;;4.93;98.55;98248.94;5002057;28;129800;-79
2021/12/31 10:48:09;;;;;;;21.63;12.38;;;3.70;99.90;;;4.85;98.87;98247.00;5001647;28;120266;-78
2021/12/31 10:50:38;;;;;;;19.92;11.32;;;3.60;99.90;;;4.72;99.43;98250.50;5002342;28;119209;-77
2021/12/31 10:53:11;;;;;;;21.75;11.88;;;3.60;99.90;;;4.78;99.89;98258.16;5002257;28;129753;-76
2021/12/31 10:55:44;;;;;;;19.85;12.48;;;3.60;99.90;;;4.85;99.66;98242.41;5001555;28;129653;-76
2021/12/31 10:58:14;;;;;;;17.17;10.52;;;3.70;99.90;;;4.96;99.41;98242.97;4987738;28;118700;-78
2021/12/31 11:00:45;;;;;;;18.63;10.85;;;3.80;99.90;;;4.92;99.39;98241.97;5005873;28;119309;-77
2021/12/31 11:03:13;;;;;;;17.30;10.50;;;3.80;99.90;;;5.01;98.98;98240.16;5001839;28;129957;-77
2021/12/31 11:05:42;;;;;;;21.67;11.30;;;3.80;99.90;;;5.02;98.79;98241.75;5003373;28;130065;-77
2021/12/31 11:08:13;;;;;;;16.50;9.85;;;3.80;99.90;;;5.01;98.19;98244.75;5006351;28;119594;-79
2021/12/31 11:10:43;;;;;;;16.35;9.23;;;3.80;99.90;;;4.98;98.94;98251.50;4987969;28;119104;-78
2021/12/31 11:13:14;;;;;;;15.23;8.45;;;3.80;99.90;;;5.08;98.86;98249.69;5004108;28;130360;-77
2021/12/31 11:15:45;;;;;;;16.77;8.90;;;3.90;99.90;;;5.03;99.12;98248.72;5002903;28;129824;-77
2021/12/31 11:18:18;;;;;;;12.43;8.18;;;3.90;99.90;;;5.02;98.75;98247.13;5004239;28;119518;-77
2021/12/31 11:20:48;;;;;;;14.70;8.02;;;3.80;99.90;;;4.75;99.91;98236.47;4985751;28;118127;-76
2021/12/31 11:23:24;;;;;;;13.77;8.73;;;3.70;99.90;;;4.59;100.00;98228.75;5004654;28;128670;-77
2021/12/31 11:25:57;;;;;;;11.40;7.90;;;3.70;99.90;;;4.52;100.00;98223.00;5003205;28;130445;-77
2021/12/31 11:28:29;;;;;;;13.73;8.40;;;3.70;99.90;;;4.44;100.00;98234.44;5002781;28;122025;-75
2021/12/31 11:31:27;;;;;;;13.80;7.88;;;3.70;99.90;;;4.39;100.00;98221.13;5018936;28;121923;-76
2021/12/31 11:34:26;;;;;;;12.13;7.68;;;3.70;99.90;;;4.48;100.00;98216.66;5005694;28;129888;-76
2021/12/31 11:36:57;;;;;;;14.13;7.78;;;3.70;99.90;;;4.53;100.00;98229.97;5006217;28;130284;-76
2021/12/31 11:39:29;;;;;;;15.30;9.27;;;3.80;99.90;;;4.62;100.00;98217.41;5006439;28;119591;-76
2021/12/31 11:42:02;;;;;;;15.38;8.65;;;3.80;99.90;;;4.67;100.00;98214.63;5021715;28;119523;-76
2021/12/31 11:44:33;;;;;;;16.60;9.23;;;3.80;99.90;;;4.77;100.00;98216.25;5006971;28;130165;-76
2021/12/31 11:47:16;;;;;;;15.90;8.85;;;3.80;99.90;;;4.80;100.00;98214.84;4991440;28;129270;-76
2021/12/31 11:49:47;;;;;;;13.48;7.88;;;3.80;99.90;;;4.72;100.00;98210.19;5006189;28;119807;-76
2021/12/31 11:52:20;;;;;;;14.48;8.73;;;3.80;99.90;;;4.71;100.00;98214.00;5006213;28;119548;-76
2021/12/31 11:55:07;;;;;;;18.88;8.70;;;3.80;99.90;;;4.60;100.00;98211.53;4990244;28;130363;-76
2021/12/31 11:57:38;;;;;;;14.45;8.73;;;3.70;99.90;;;4.57;100.00;98224.78;5008166;28;129777;-76
2021/12/31 12:00:24;;;;;;;15.25;9.32;;;3.60;99.90;;;4.49;100.00;98223.63;5008625;28;120337;-76
2021/12/31 12:02:53;;;;;;;15.50;9.05;;;3.60;99.90;;;4.54;100.00;98231.56;5005872;28;119323;-76
2021/12/31 12:05:22;;;;;;;14.30;9.20;;;3.70;99.90;;;4.50;100.00;98220.63;5005574;28;130588;-76
2021/12/31 12:07:52;;;;;;;13.57;8.60;;;3.70;99.90;;;4.55;100.00;98217.03;5005736;28;129560;-76
2021/12/31 12:10:27;;;;;;;15.05;8.60;;;3.70;99.90;;;4.71;100.00;98211.31;5005801;28;119680;-76
2021/12/31 12:13:25;;;;;;;12.77;8.73;;;3.80;99.90;;;4.91;100.00;98218.91;5007751;28;118335;-75
2021/12/31 12:15:53;;;;;;;;;;;3.90;99.90;;;4.80;100.00;98206.78;4987425;28;130322;-75
2021/12/31 12:18:55;;;;;;;26.42;17.40;;;3.90;99.90;;;4.67;100.00;98203.88;4990854;28;128661;-76
2021/12/31 12:21:38;;;;;;;15.57;10.38;;;3.80;99.90;;;4.70;100.00;98201.66;5004345;28;122266;-78
2021/12/31 12:24:08;;;;;;;15.10;9.30;;;3.80;99.90;;;4.69;100.00;98192.81;5006714;28;122757;-77
2021/12/31 12:26:36;;;;;;;17.95;9.43;;;3.70;99.90;;;4.68;100.00;98192.00;5008460;28;129371;-76
2021/12/31 12:29:06;;;;;;;16.33;9.30;;;3.80;99.90;;;4.78;100.00;98192.84;5005291;28;130508;-78
2021/12/31 12:31:39;;;;;;;14.95;9.48;;;3.80;99.90;;;4.63;100.00;98186.75;5005806;28;119942;-76
2021/12/31 12:34:10;;;;;;;16.15;9.18;;;3.70;99.90;;;4.57;100.00;98182.59;5008043;28;119264;-76
2021/12/31 12:36:40;;;;;;;16.48;9.40;;;3.70;99.90;;;4.40;100.00;98182.44;5006165;28;129429;-76
2021/12/31 12:39:09;;;;;;;14.43;8.93;;;3.60;99.90;;;4.42;100.00;98185.63;5005622;28;129707;-75
2021/12/31 12:41:42;;;;;;;16.88;9.57;;;3.60;99.90;;;4.46;100.00;98184.72;5006714;28;119454;-85
2021/12/31 12:44:13;;;;;;;16.67;9.48;;;3.60;99.90;;;4.50;100.00;98182.19;5023871;28;119538;-80
2021/12/31 12:46:56;;;;;;;19.15;9.90;;;3.60;99.90;;;4.44;100.00;98178.03;5002638;28;130042;-80
2021/12/31 12:49:26;;;;;;;18.40;9.30;;;3.60;99.90;;;4.39;100.00;98180.84;5005754;28;129600;-80
2021/12/31 12:51:56;;;;;;;14.55;9.68;;;3.60;99.90;;;4.29;100.00;98185.34;4991667;28;119162;-82
2021/12/31 12:54:25;;;;;;;17.40;9.60;;;3.50;99.90;;;4.25;100.00;98187.03;5005893;28;119143;-80
2021/12/31 12:56:54;;;;;;;16.45;8.50;;;3.50;99.90;;;4.03;100.00;98195.03;5005148;28;130407;-79
2021/12/31 12:59:24;;;;;;;20.15;9.18;;;3.50;99.90;;;3.91;100.00;98182.94;4990386;28;129278;-81
2021/12/31 13:01:53;;;;;;;15.07;9.05;;;3.40;99.90;;;3.87;100.00;98186.50;5021014;28;119909;-82
2021/12/31 13:04:27;;;;;;;14.68;8.63;;;3.40;99.90;;;3.74;100.00;98188.06;5007779;28;119095;-76
2021/12/31 13:07:02;;;;;;;14.15;8.82;;;3.30;99.90;;;3.73;100.00;98187.28;4989060;28;130270;-80
2021/12/31 13:09:33;;;;;;;14.02;7.93;;;3.40;99.90;;;3.70;100.00;98182.53;5000314;28;129785;-78
2021/12/31 13:12:04;;;;;;;14.05;8.68;;;3.30;99.90;;;3.64;100.00;98177.56;5002639;28;121335;-77